sensor_id;sensor_type;location;lat;lon;timestamp;pressure;altitude;pressure_sealevel;temperature;humidity
61682;BME280;47577;43.610;25.010;2023-05-10T00:02:14;101037.34;;;10.25;92.09
61682;BME280;47577;43.610;25.010;2023-05-10T00:04:40;101034.56;;;10.30;90.97
61682;BME280;47577;43.610;25.010;2023-05-10T00:07:05;101031.13;;;10.25;91.79
61682;BME280;47577;43.610;25.010;2023-05-10T00:09:32;101029.25;;;10.30;91.64
61682;BME280;47577;43.610;25.010;2023-05-10T00:11:58;101019.66;;;10.23;90.75
61682;BME280;47577;43.610;25.010;2023-05-10T00:14:24;101020.34;;;10.33;91.63
61682;BME280;47577;43.610;25.010;2023-05-10T00:16:49;101026.53;;;10.32;91.21
61682;BME280;47577;43.610;25.010;2023-05-10T00:19:15;101009.03;;;10.23;91.23
61682;BME280;47577;43.610;25.010;2023-05-10T00:21:41;101020.31;;;10.34;91.70
61682;BME280;47577;43.610;25.010;2023-05-10T00:24:06;101011.41;;;10.37;91.13
61682;BME280;47577;43.610;25.010;2023-05-10T00:26:32;101019.22;;;10.43;91.34
61682;BME280;47577;43.610;25.010;2023-05-10T00:28:58;101022.09;;;10.35;90.56
61682;BME280;47577;43.610;25.010;2023-05-10T00:31:23;101015.06;;;10.30;92.42
61682;BME280;47577;43.610;25.010;2023-05-10T00:33:49;101006.16;;;10.34;91.38
61682;BME280;47577;43.610;25.010;2023-05-10T00:36:15;101012.25;;;10.39;91.30
61682;BME280;47577;43.610;25.010;2023-05-10T00:38:40;101008.84;;;10.32;91.35
61682;BME280;47577;43.610;25.010;2023-05-10T00:41:06;101006.06;;;10.38;90.63
61682;BME280;47577;43.610;25.010;2023-05-10T00:43:32;101013.00;;;10.44;90.66
61682;BME280;47577;43.610;25.010;2023-05-10T00:45:57;101007.63;;;10.47;90.74
61682;BME280;47577;43.610;25.010;2023-05-10T00:48:23;101017.38;;;10.47;90.41
61682;BME280;47577;43.610;25.010;2023-05-10T00:50:49;101015.59;;;10.47;90.09
61682;BME280;47577;43.610;25.010;2023-05-10T00:53:15;101016.50;;;10.46;90.84
61682;BME280;47577;43.610;25.010;2023-05-10T00:55:41;101010.28;;;10.47;90.16
61682;BME280;47577;43.610;25.010;2023-05-10T00:58:07;101013.97;;;10.41;90.85
61682;BME280;47577;43.610;25.010;2023-05-10T01:00:33;101013.00;;;10.44;91.14
61682;BME280;47577;43.610;25.010;2023-05-10T01:02:59;101013.22;;;10.35;90.25
61682;BME280;47577;43.610;25.010;2023-05-10T01:05:25;101021.28;;;10.30;90.63
61682;BME280;47577;43.610;25.010;2023-05-10T01:07:52;101015.97;;;10.30;91.99
61682;BME280;47577;43.610;25.010;2023-05-10T01:10:18;101010.75;;;10.25;92.06
61682;BME280;47577;43.610;25.010;2023-05-10T01:12:46;101010.78;;;10.24;91.98
61682;BME280;47577;43.610;25.010;2023-05-10T01:15:13;101008.09;;;10.25;91.80
61682;BME280;47577;43.610;25.010;2023-05-10T01:17:42;101001.22;;;10.15;91.99
61682;BME280;47577;43.610;25.010;2023-05-10T01:20:09;101000.38;;;10.13;91.86
61682;BME280;47577;43.610;25.010;2023-05-10T01:25:58;100988.22;;;10.03;91.43
61682;BME280;47577;43.610;25.010;2023-05-10T01:34:02;100985.75;;;9.94;91.33
61682;BME280;47577;43.610;25.010;2023-05-10T01:36:37;100989.19;;;9.99;91.51
61682;BME280;47577;43.610;25.010;2023-05-10T01:41:41;100996.28;;;9.98;90.69
61682;BME280;47577;43.610;25.010;2023-05-10T01:44:39;100991.13;;;9.91;92.11
61682;BME280;47577;43.610;25.010;2023-05-10T01:47:17;100985.94;;;9.86;92.63
61682;BME280;47577;43.610;25.010;2023-05-10T01:49:50;100992.25;;;9.80;91.95
61682;BME280;47577;43.610;25.010;2023-05-10T01:52:18;100993.19;;;9.78;92.02
61682;BME280;47577;43.610;25.010;2023-05-10T01:54:49;100991.34;;;9.81;92.52
61682;BME280;47577;43.610;25.010;2023-05-10T01:57:19;100981.53;;;9.85;92.16
61682;BME280;47577;43.610;25.010;2023-05-10T01:59:49;100989.56;;;9.82;91.54
61682;BME280;47577;43.610;25.010;2023-05-10T02:02:17;100990.44;;;9.82;91.85
61682;BME280;47577;43.610;25.010;2023-05-10T02:04:45;100994.81;;;9.85;92.38
61682;BME280;47577;43.610;25.010;2023-05-10T02:07:11;100993.13;;;9.81;92.78
61682;BME280;47577;43.610;25.010;2023-05-10T02:09:40;100993.94;;;9.83;91.25
61682;BME280;47577;43.610;25.010;2023-05-10T02:12:08;101000.16;;;9.83;91.20
61682;BME280;47577;43.610;25.010;2023-05-10T02:14:36;101003.78;;;9.79;91.70
61682;BME280;47577;43.610;25.010;2023-05-10T02:17:04;100999.53;;;9.70;91.52
61682;BME280;47577;43.610;25.010;2023-05-10T02:19:32;101001.28;;;9.72;93.24
61682;BME280;47577;43.610;25.010;2023-05-10T02:21:59;101010.28;;;9.64;92.18
61682;BME280;47577;43.610;25.010;2023-05-10T02:24:26;100992.78;;;9.56;93.39
61682;BME280;47577;43.610;25.010;2023-05-10T02:26:54;100991.94;;;9.52;94.41
61682;BME280;47577;43.610;25.010;2023-05-10T02:29:23;100991.13;;;9.48;95.36
61682;BME280;47577;43.610;25.010;2023-05-10T02:31:51;100995.59;;;9.46;95.01
61682;BME280;47577;43.610;25.010;2023-05-10T02:34:18;100987.78;;;9.39;94.58
61682;BME280;47577;43.610;25.010;2023-05-10T02:36:45;100984.56;;;9.21;96.74
61682;BME280;47577;43.610;25.010;2023-05-10T02:39:11;100979.22;;;9.24;95.42
61682;BME280;47577;43.610;25.010;2023-05-10T02:41:40;100983.03;;;9.09;95.76
61682;BME280;47577;43.610;25.010;2023-05-10T02:44:07;100992.63;;;9.17;95.19
61682;BME280;47577;43.610;25.010;2023-05-10T02:46:35;100993.44;;;9.22;96.79
61682;BME280;47577;43.610;25.010;2023-05-10T02:49:02;100993.50;;;9.17;95.95
61682;BME280;47577;43.610;25.010;2023-05-10T02:51:31;100997.06;;;9.16;95.40
61682;BME280;47577;43.610;25.010;2023-05-10T02:54:12;100994.28;;;9.22;96.41
61682;BME280;47577;43.610;25.010;2023-05-10T02:56:43;100993.44;;;9.20;94.69
61682;BME280;47577;43.610;25.010;2023-05-10T02:59:12;101003.94;;;9.26;94.46
61682;BME280;47577;43.610;25.010;2023-05-10T03:01:38;100994.31;;;9.21;94.15
61682;BME280;47577;43.610;25.010;2023-05-10T03:04:03;101002.22;;;9.24;93.06
61682;BME280;47577;43.610;25.010;2023-05-10T03:06:29;101010.16;;;9.25;94.22
61682;BME280;47577;43.610;25.010;2023-05-10T03:08:55;101007.63;;;9.19;92.65
61682;BME280;47577;43.610;25.010;2023-05-10T03:17:54;100992.09;;;8.98;93.54
61682;BME280;47577;43.610;25.010;2023-05-10T03:20:04;100987.56;;;9.03;94.20
61682;BME280;47577;43.610;25.010;2023-05-10T03:22:36;100988.63;;;8.92;94.99
61682;BME280;47577;43.610;25.010;2023-05-10T03:25:06;100999.38;;;8.85;95.22
61682;BME280;47577;43.610;25.010;2023-05-10T03:27:32;100997.53;;;8.90;94.54
61682;BME280;47577;43.610;25.010;2023-05-10T03:29:59;100998.47;;;8.86;94.56
61682;BME280;47577;43.610;25.010;2023-05-10T03:32:26;100990.56;;;8.83;94.33
61682;BME280;47577;43.610;25.010;2023-05-10T03:34:52;100995.69;;;8.93;94.96
61682;BME280;47577;43.610;25.010;2023-05-10T03:37:18;100989.69;;;8.82;94.66
61682;BME280;47577;43.610;25.010;2023-05-10T03:39:43;100981.16;;;8.65;95.84
61682;BME280;47577;43.610;25.010;2023-05-10T03:42:09;100985.59;;;8.63;95.51
61682;BME280;47577;43.610;25.010;2023-05-10T03:44:38;100984.13;;;8.41;96.60
61682;BME280;47577;43.610;25.010;2023-05-10T03:47:04;100988.84;;;8.21;97.12
61682;BME280;47577;43.610;25.010;2023-05-10T03:49:29;100998.66;;;8.14;98.14
61682;BME280;47577;43.610;25.010;2023-05-10T03:51:55;101003.06;;;8.17;97.24
61682;BME280;47577;43.610;25.010;2023-05-10T03:54:21;101004.03;;;8.10;98.15
61682;BME280;47577;43.610;25.010;2023-05-10T03:56:46;101014.53;;;8.16;98.62
61682;BME280;47577;43.610;25.010;2023-05-10T03:59:13;101012.69;;;8.22;97.37
61682;BME280;47577;43.610;25.010;2023-05-10T04:01:39;101009.94;;;8.29;98.16
61682;BME280;47577;43.610;25.010;2023-05-10T04:04:04;101006.56;;;8.17;97.54
61682;BME280;47577;43.610;25.010;2023-05-10T04:06:30;101003.03;;;8.18;97.61
61682;BME280;47577;43.610;25.010;2023-05-10T04:08:56;101004.88;;;8.13;98.28
61682;BME280;47577;43.610;25.010;2023-05-10T04:11:25;101013.69;;;8.14;97.84
61682;BME280;47577;43.610;25.010;2023-05-10T04:13:50;101012.69;;;8.22;98.24
61682;BME280;47577;43.610;25.010;2023-05-10T04:16:16;101009.09;;;8.27;98.27
61682;BME280;47577;43.610;25.010;2023-05-10T04:18:42;101010.72;;;8.35;97.24
61682;BME280;47577;43.610;25.010;2023-05-10T04:21:14;101010.78;;;8.31;96.54
61682;BME280;47577;43.610;25.010;2023-05-10T04:23:40;101027.41;;;8.44;97.33
61682;BME280;47577;43.610;25.010;2023-05-10T04:26:06;101026.56;;;8.40;96.07
61682;BME280;47577;43.610;25.010;2023-05-10T04:28:31;101023.00;;;8.44;96.92
61682;BME280;47577;43.610;25.010;2023-05-10T04:31:04;101026.47;;;8.48;97.17
61682;BME280;47577;43.610;25.010;2023-05-10T04:33:31;101013.22;;;8.49;97.43
61682;BME280;47577;43.610;25.010;2023-05-10T04:35:56;101012.41;;;8.44;97.53
61682;BME280;47577;43.610;25.010;2023-05-10T04:38:22;101026.44;;;8.51;96.36
61682;BME280;47577;43.610;25.010;2023-05-10T04:40:48;101011.53;;;8.39;95.71
61682;BME280;47577;43.610;25.010;2023-05-10T04:43:13;101023.91;;;8.43;96.92
61682;BME280;47577;43.610;25.010;2023-05-10T04:45:39;101016.91;;;8.37;96.86
61682;BME280;47577;43.610;25.010;2023-05-10T04:48:08;101021.22;;;8.45;95.60
61682;BME280;47577;43.610;25.010;2023-05-10T04:50:33;101020.38;;;8.41;96.84
61682;BME280;47577;43.610;25.010;2023-05-10T04:52:59;101018.59;;;8.41;96.21
61682;BME280;47577;43.610;25.010;2023-05-10T04:55:24;101020.41;;;8.38;96.17
61682;BME280;47577;43.610;25.010;2023-05-10T04:57:51;101018.66;;;8.37;95.84
61682;BME280;47577;43.610;25.010;2023-05-10T05:00:17;101015.81;;;8.52;96.46
61682;BME280;47577;43.610;25.010;2023-05-10T05:02:44;101027.97;;;8.66;95.68
61682;BME280;47577;43.610;25.010;2023-05-10T05:05:12;101026.94;;;8.74;94.38
61682;BME280;47577;43.610;25.010;2023-05-10T05:07:38;101007.59;;;8.69;96.18
61682;BME280;47577;43.610;25.010;2023-05-10T05:10:06;101032.00;;;8.90;94.94
61682;BME280;47577;43.610;25.010;2023-05-10T05:12:32;101030.19;;;8.92;95.39
61682;BME280;47577;43.610;25.010;2023-05-10T05:14:57;101027.50;;;8.93;94.02
61682;BME280;47577;43.610;25.010;2023-05-10T05:17:23;101037.00;;;9.07;94.13
61682;BME280;47577;43.610;25.010;2023-05-10T05:19:48;101035.16;;;9.12;93.54
61682;BME280;47577;43.610;25.010;2023-05-10T05:22:14;101024.63;;;9.07;93.74
61682;BME280;47577;43.610;25.010;2023-05-10T05:24:40;101038.69;;;9.12;94.62
61682;BME280;47577;43.610;25.010;2023-05-10T05:27:05;101033.28;;;9.19;93.42
61682;BME280;47577;43.610;25.010;2023-05-10T05:29:31;101032.28;;;9.24;93.14
61682;BME280;47577;43.610;25.010;2023-05-10T05:31:57;101022.50;;;9.26;92.72
61682;BME280;47577;43.610;25.010;2023-05-10T05:34:23;101035.72;;;9.29;91.85
61682;BME280;47577;43.610;25.010;2023-05-10T05:36:49;101034.00;;;9.28;92.01
61682;BME280;47577;43.610;25.010;2023-05-10T05:39:15;101034.78;;;9.33;90.94
61682;BME280;47577;43.610;25.010;2023-05-10T05:41:41;101032.84;;;9.42;91.72
61682;BME280;47577;43.610;25.010;2023-05-10T05:44:07;101024.81;;;9.46;92.93
61682;BME280;47577;43.610;25.010;2023-05-10T05:46:33;101023.66;;;9.60;90.31
61682;BME280;47577;43.610;25.010;2023-05-10T05:48:59;101029.63;;;9.71;89.48
61682;BME280;47577;43.610;25.010;2023-05-10T05:51:24;101037.47;;;9.77;89.03
61682;BME280;47577;43.610;25.010;2023-05-10T05:53:50;101033.03;;;9.76;89.90
61682;BME280;47577;43.610;25.010;2023-05-10T05:56:16;101032.91;;;9.84;89.73
61682;BME280;47577;43.610;25.010;2023-05-10T05:58:49;101030.19;;;9.87;88.66
61682;BME280;47577;43.610;25.010;2023-05-10T06:01:15;101026.06;;;10.14;90.32
61682;BME280;47577;43.610;25.010;2023-05-10T06:03:41;101035.59;;;10.23;87.78
61682;BME280;47577;43.610;25.010;2023-05-10T06:06:07;101032.63;;;9.98;87.58
61682;BME280;47577;43.610;25.010;2023-05-10T06:08:33;101031.94;;;10.29;89.62
61682;BME280;47577;43.610;25.010;2023-05-10T06:11:00;101022.75;;;10.45;87.96
61682;BME280;47577;43.610;25.010;2023-05-10T06:13:25;101028.63;;;10.59;87.55
61682;BME280;47577;43.610;25.010;2023-05-10T06:15:57;101033.47;;;10.78;88.53
61682;BME280;47577;43.610;25.010;2023-05-10T06:18:23;101034.84;;;10.94;86.89
61682;BME280;47577;43.610;25.010;2023-05-10T06:20:49;101031.75;;;11.11;86.18
61682;BME280;47577;43.610;25.010;2023-05-10T06:23:15;101028.56;;;11.31;86.08
61682;BME280;47577;43.610;25.010;2023-05-10T06:25:41;101031.63;;;11.49;84.01
61682;BME280;47577;43.610;25.010;2023-05-10T06:28:06;101033.03;;;11.62;81.44
61682;BME280;47577;43.610;25.010;2023-05-10T06:30:32;101029.91;;;11.79;81.43
61682;BME280;47577;43.610;25.010;2023-05-10T06:32:57;101026.06;;;11.89;81.49
61682;BME280;47577;43.610;25.010;2023-05-10T06:35:24;101021.84;;;12.12;81.10
61682;BME280;47577;43.610;25.010;2023-05-10T06:37:50;101017.75;;;12.30;80.27
61682;BME280;47577;43.610;25.010;2023-05-10T06:40:16;101016.53;;;12.40;76.80
61682;BME280;47577;43.610;25.010;2023-05-10T06:42:42;101030.63;;;12.72;77.16
61682;BME280;47577;43.610;25.010;2023-05-10T06:45:08;101022.63;;;12.72;74.88
61682;BME280;47577;43.610;25.010;2023-05-10T06:47:34;101016.81;;;12.88;73.97
61682;BME280;47577;43.610;25.010;2023-05-10T06:50:00;101029.56;;;13.05;73.15
61682;BME280;47577;43.610;25.010;2023-05-10T06:52:25;101025.94;;;13.07;73.47
61682;BME280;47577;43.610;25.010;2023-05-10T06:54:51;101002.72;;;13.09;72.51
61682;BME280;47577;43.610;25.010;2023-05-10T06:57:17;101005.56;;;13.30;71.24
61682;BME280;47577;43.610;25.010;2023-05-10T06:59:43;101018.06;;;13.55;70.74
61682;BME280;47577;43.610;25.010;2023-05-10T07:02:09;101013.47;;;13.58;70.15
61682;BME280;47577;43.610;25.010;2023-05-10T07:04:34;101000.06;;;13.60;71.59
61682;BME280;47577;43.610;25.010;2023-05-10T07:07:00;101004.38;;;13.87;67.13
61682;BME280;47577;43.610;25.010;2023-05-10T07:09:26;101016.53;;;13.96;65.07
61682;BME280;47577;43.610;25.010;2023-05-10T07:11:51;101007.03;;;14.11;64.11
61682;BME280;47577;43.610;25.010;2023-05-10T07:14:17;100999.28;;;14.27;57.15
61682;BME280;47577;43.610;25.010;2023-05-10T07:16:43;101003.56;;;14.31;64.14
61682;BME280;47577;43.610;25.010;2023-05-10T07:19:09;101015.56;;;14.43;62.99
61682;BME280;47577;43.610;25.010;2023-05-10T07:21:36;100999.09;;;14.54;61.14
61682;BME280;47577;43.610;25.010;2023-05-10T07:24:02;101010.66;;;14.54;62.02
61682;BME280;47577;43.610;25.010;2023-05-10T07:26:28;101006.25;;;14.75;61.60
61682;BME280;47577;43.610;25.010;2023-05-10T07:28:54;101004.41;;;14.77;62.23
61682;BME280;47577;43.610;25.010;2023-05-10T07:31:19;101019.66;;;14.75;60.03
61682;BME280;47577;43.610;25.010;2023-05-10T07:33:45;101007.16;;;14.96;59.72
61682;BME280;47577;43.610;25.010;2023-05-10T07:36:11;101006.78;;;15.06;53.53
61682;BME280;47577;43.610;25.010;2023-05-10T07:38:37;100995.34;;;15.02;53.35
61682;BME280;47577;43.610;25.010;2023-05-10T07:41:02;101010.34;;;15.27;53.54
61682;BME280;47577;43.610;25.010;2023-05-10T07:43:28;101008.59;;;15.26;51.25
61682;BME280;47577;43.610;25.010;2023-05-10T07:45:54;100992.31;;;15.30;53.85
61682;BME280;47577;43.610;25.010;2023-05-10T07:48:19;101004.44;;;15.39;52.57
61682;BME280;47577;43.610;25.010;2023-05-10T07:50:45;101003.22;;;15.46;53.09
61682;BME280;47577;43.610;25.010;2023-05-10T07:53:11;101000.88;;;15.39;52.61
61682;BME280;47577;43.610;25.010;2023-05-10T07:55:36;101005.56;;;15.54;51.49
61682;BME280;47577;43.610;25.010;2023-05-10T07:58:02;100992.69;;;15.62;51.88
61682;BME280;47577;43.610;25.010;2023-05-10T08:00:27;101004.78;;;15.71;50.85
61682;BME280;47577;43.610;25.010;2023-05-10T08:02:53;100998.38;;;15.75;51.45
61682;BME280;47577;43.610;25.010;2023-05-10T08:05:19;101000.19;;;15.75;52.59
61682;BME280;47577;43.610;25.010;2023-05-10T08:07:44;101004.34;;;15.61;50.58
61682;BME280;47577;43.610;25.010;2023-05-10T08:10:10;101006.22;;;15.80;51.08
61682;BME280;47577;43.610;25.010;2023-05-10T08:12:38;100997.25;;;16.00;49.87
61682;BME280;47577;43.610;25.010;2023-05-10T08:15:04;101000.66;;;16.03;51.57
61682;BME280;47577;43.610;25.010;2023-05-10T08:17:30;101003.47;;;16.19;51.67
61682;BME280;47577;43.610;25.010;2023-05-10T08:19:55;101006.59;;;16.29;49.07
61682;BME280;47577;43.610;25.010;2023-05-10T08:22:21;101010.59;;;16.39;49.34
61682;BME280;47577;43.610;25.010;2023-05-10T08:24:47;101004.75;;;16.49;50.34
61682;BME280;47577;43.610;25.010;2023-05-10T08:27:12;100992.00;;;16.54;49.70
61682;BME280;47577;43.610;25.010;2023-05-10T08:29:38;100991.84;;;16.74;49.20
61682;BME280;47577;43.610;25.010;2023-05-10T08:32:04;100997.22;;;16.93;49.54
61682;BME280;47577;43.610;25.010;2023-05-10T08:34:30;100994.28;;;16.98;47.68
61682;BME280;47577;43.610;25.010;2023-05-10T08:36:56;100997.44;;;16.89;49.73
61682;BME280;47577;43.610;25.010;2023-05-10T08:39:22;100996.91;;;16.99;49.53
61682;BME280;47577;43.610;25.010;2023-05-10T08:41:51;100992.16;;;17.05;48.22
61682;BME280;47577;43.610;25.010;2023-05-10T08:44:18;100997.59;;;17.03;49.29
61682;BME280;47577;43.610;25.010;2023-05-10T08:46:46;101003.91;;;17.20;48.66
61682;BME280;47577;43.610;25.010;2023-05-10T08:49:17;101003.91;;;17.20;46.16
61682;BME280;47577;43.610;25.010;2023-05-10T08:51:50;100992.16;;;17.22;47.11
61682;BME280;47577;43.610;25.010;2023-05-10T08:54:17;100994.41;;;17.30;46.77
61682;BME280;47577;43.610;25.010;2023-05-10T08:56:42;101006.44;;;17.05;48.96
61682;BME280;47577;43.610;25.010;2023-05-10T08:59:08;100990.41;;;17.21;50.27
61682;BME280;47577;43.610;25.010;2023-05-10T09:01:36;100991.34;;;17.38;47.60
61682;BME280;47577;43.610;25.010;2023-05-10T09:04:02;100988.56;;;17.39;48.64
61682;BME280;47577;43.610;25.010;2023-05-10T09:06:29;101000.31;;;17.54;47.34
61682;BME280;47577;43.610;25.010;2023-05-10T09:08:55;100997.44;;;17.75;46.41
61682;BME280;47577;43.610;25.010;2023-05-10T09:11:21;100988.81;;;17.68;43.73
61682;BME280;47577;43.610;25.010;2023-05-10T09:13:48;100987.09;;;17.67;45.50
61682;BME280;47577;43.610;25.010;2023-05-10T09:16:16;100987.59;;;17.58;44.51
61682;BME280;47577;43.610;25.010;2023-05-10T09:18:41;100987.00;;;17.68;45.11
61682;BME280;47577;43.610;25.010;2023-05-10T09:21:07;100965.25;;;17.73;43.98
61682;BME280;47577;43.610;25.010;2023-05-10T09:23:33;100977.47;;;17.63;45.58
61682;BME280;47577;43.610;25.010;2023-05-10T09:26:05;100974.69;;;17.64;45.24
61682;BME280;47577;43.610;25.010;2023-05-10T09:28:34;100967.97;;;17.55;45.64
61682;BME280;47577;43.610;25.010;2023-05-10T09:31:15;100961.84;;;17.69;45.35
61682;BME280;47577;43.610;25.010;2023-05-10T09:33:44;100967.94;;;17.73;44.41
61682;BME280;47577;43.610;25.010;2023-05-10T09:36:11;100956.50;;;17.85;42.73
61682;BME280;47577;43.610;25.010;2023-05-10T09:38:51;100959.69;;;18.09;44.24
61682;BME280;47577;43.610;25.010;2023-05-10T09:41:23;100945.06;;;18.30;41.35
61682;BME280;47577;43.610;25.010;2023-05-10T09:43:49;100957.75;;;18.27;42.49
61682;BME280;47577;43.610;25.010;2023-05-10T09:46:16;100951.25;;;18.00;43.55
61682;BME280;47577;43.610;25.010;2023-05-10T09:48:44;100948.13;;;18.23;42.52
61682;BME280;47577;43.610;25.010;2023-05-10T09:51:10;100950.13;;;18.04;42.74
61682;BME280;47577;43.610;25.010;2023-05-10T09:53:36;100951.25;;;18.00;40.60
61682;BME280;47577;43.610;25.010;2023-05-10T09:56:02;100943.88;;;18.35;41.30
61682;BME280;47577;43.610;25.010;2023-05-10T09:58:27;100948.38;;;18.19;40.64
61682;BME280;47577;43.610;25.010;2023-05-10T10:00:53;100944.72;;;18.36;41.46
61682;BME280;47577;43.610;25.010;2023-05-10T10:03:20;100930.94;;;18.26;40.88
61682;BME280;47577;43.610;25.010;2023-05-10T10:05:49;100937.44;;;18.06;40.13
61682;BME280;47577;43.610;25.010;2023-05-10T10:08:15;100933.09;;;18.35;42.03
61682;BME280;47577;43.610;25.010;2023-05-10T10:10:42;100935.22;;;18.14;40.70
61682;BME280;47577;43.610;25.010;2023-05-10T10:13:10;100927.91;;;18.00;42.52
61682;BME280;47577;43.610;25.010;2023-05-10T10:15:35;100926.22;;;17.82;40.61
61682;BME280;47577;43.610;25.010;2023-05-10T10:18:01;100928.72;;;17.85;41.82
61682;BME280;47577;43.610;25.010;2023-05-10T10:20:29;100934.22;;;17.83;42.14
61682;BME280;47577;43.610;25.010;2023-05-10T10:22:55;100920.59;;;18.02;43.78
61682;BME280;47577;43.610;25.010;2023-05-10T10:25:21;100922.94;;;18.24;41.05
61682;BME280;47577;43.610;25.010;2023-05-10T10:30:37;100907.81;;;18.38;42.42
61682;BME280;47577;43.610;25.010;2023-05-10T10:33:31;100912.50;;;18.34;40.43
61682;BME280;47577;43.610;25.010;2023-05-10T10:36:00;100903.72;;;18.47;42.66
61682;BME280;47577;43.610;25.010;2023-05-10T10:41:30;100912.50;;;18.50;39.95
61682;BME280;47577;43.610;25.010;2023-05-10T10:50:03;100906.47;;;18.91;41.05
61682;BME280;47577;43.610;25.010;2023-05-10T10:52:43;100906.09;;;18.97;38.91
61682;BME280;47577;43.610;25.010;2023-05-10T10:55:14;100904.16;;;18.99;38.34
61682;BME280;47577;43.610;25.010;2023-05-10T11:00:35;100900.38;;;18.57;40.33
61682;BME280;47577;43.610;25.010;2023-05-10T11:03:14;100892.53;;;18.69;40.08
61682;BME280;47577;43.610;25.010;2023-05-10T11:05:45;100898.75;;;18.85;41.52
61682;BME280;47577;43.610;25.010;2023-05-10T11:15:54;100891.41;;;18.73;38.90
61682;BME280;47577;43.610;25.010;2023-05-10T11:18:29;100893.69;;;18.64;39.52
61682;BME280;47577;43.610;25.010;2023-05-10T11:21:00;100899.56;;;18.41;38.65
61682;BME280;47577;43.610;25.010;2023-05-10T11:26:09;100878.06;;;18.55;38.46
61682;BME280;47577;43.610;25.010;2023-05-10T11:28:46;100882.28;;;18.45;39.87
61682;BME280;47577;43.610;25.010;2023-05-10T11:31:19;100879.28;;;18.80;42.20
61682;BME280;47577;43.610;25.010;2023-05-10T11:33:50;100863.78;;;19.28;40.47
61682;BME280;47577;43.610;25.010;2023-05-10T11:36:21;100868.13;;;19.16;38.34
61682;BME280;47577;43.610;25.010;2023-05-10T11:38:48;100858.84;;;19.21;39.21
61682;BME280;47577;43.610;25.010;2023-05-10T11:41:16;100859.31;;;19.56;39.13
61682;BME280;47577;43.610;25.010;2023-05-10T11:43:42;100874.06;;;19.50;37.41
61682;BME280;47577;43.610;25.010;2023-05-10T11:46:11;100876.38;;;19.13;36.20
61682;BME280;47577;43.610;25.010;2023-05-10T11:48:40;100870.13;;;18.98;37.46
61682;BME280;47577;43.610;25.010;2023-05-10T11:51:10;100850.09;;;19.31;39.84
61682;BME280;47577;43.610;25.010;2023-05-10T11:53:36;100869.78;;;19.75;39.66
61682;BME280;47577;43.610;25.010;2023-05-10T11:56:11;100856.69;;;19.69;38.03
61682;BME280;47577;43.610;25.010;2023-05-10T11:58:38;100867.50;;;19.54;38.10
61682;BME280;47577;43.610;25.010;2023-05-10T12:01:05;100869.66;;;20.05;37.29
61682;BME280;47577;43.610;25.010;2023-05-10T12:03:32;100852.72;;;20.16;36.32
61682;BME280;47577;43.610;25.010;2023-05-10T12:05:58;100848.28;;;20.55;36.83
61682;BME280;47577;43.610;25.010;2023-05-10T12:08:26;100854.41;;;20.85;36.34
61682;BME280;47577;43.610;25.010;2023-05-10T12:10:53;100851.47;;;20.88;34.90
61682;BME280;47577;43.610;25.010;2023-05-10T12:13:20;100838.97;;;20.99;33.01
61682;BME280;47577;43.610;25.010;2023-05-10T12:15:46;100853.00;;;21.05;33.30
61682;BME280;47577;43.610;25.010;2023-05-10T12:18:14;100841.66;;;20.34;33.83
61682;BME280;47577;43.610;25.010;2023-05-10T12:20:40;100846.22;;;20.46;35.82
61682;BME280;47577;43.610;25.010;2023-05-10T12:23:09;100842.28;;;20.64;34.63
61682;BME280;47577;43.610;25.010;2023-05-10T12:25:38;100833.44;;;20.75;35.03
61682;BME280;47577;43.610;25.010;2023-05-10T12:28:06;100847.06;;;20.99;33.67
61682;BME280;47577;43.610;25.010;2023-05-10T12:30:34;100839.72;;;21.02;34.77
61682;BME280;47577;43.610;25.010;2023-05-10T12:33:11;100839.19;;;20.84;35.05
61682;BME280;47577;43.610;25.010;2023-05-10T12:35:45;100838.72;;;20.64;35.94
61682;BME280;47577;43.610;25.010;2023-05-10T12:40:59;100817.53;;;21.22;36.30
61682;BME280;47577;43.610;25.010;2023-05-10T12:43:25;100812.84;;;21.50;35.74
61682;BME280;47577;43.610;25.010;2023-05-10T12:45:51;100813.25;;;21.44;35.57
61682;BME280;47577;43.610;25.010;2023-05-10T12:48:16;100805.38;;;21.41;33.42
61682;BME280;47577;43.610;25.010;2023-05-10T12:50:42;100816.34;;;20.88;34.54
61682;BME280;47577;43.610;25.010;2023-05-10T12:53:08;100819.72;;;21.04;34.30
61682;BME280;47577;43.610;25.010;2023-05-10T12:55:33;100806.94;;;21.19;35.68
61682;BME280;47577;43.610;25.010;2023-05-10T12:57:59;100814.31;;;20.91;34.62
61682;BME280;47577;43.610;25.010;2023-05-10T13:00:25;100794.19;;;21.08;34.88
61682;BME280;47577;43.610;25.010;2023-05-10T13:02:51;100793.81;;;21.39;34.28
61682;BME280;47577;43.610;25.010;2023-05-10T13:05:16;100797.31;;;21.65;35.32
61682;BME280;47577;43.610;25.010;2023-05-10T13:07:43;100792.78;;;21.89;34.82
61682;BME280;47577;43.610;25.010;2023-05-10T13:10:09;100796.06;;;22.06;32.68
61682;BME280;47577;43.610;25.010;2023-05-10T13:12:35;100787.31;;;22.02;33.65
61682;BME280;47577;43.610;25.010;2023-05-10T13:15:02;100786.38;;;22.15;33.42
61682;BME280;47577;43.610;25.010;2023-05-10T13:17:28;100766.97;;;22.21;32.67
61682;BME280;47577;43.610;25.010;2023-05-10T13:19:54;100791.00;;;22.01;32.58
61682;BME280;47577;43.610;25.010;2023-05-10T13:22:20;100777.16;;;21.93;34.08
61682;BME280;47577;43.610;25.010;2023-05-10T13:24:46;100769.19;;;21.67;33.16
61682;BME280;47577;43.610;25.010;2023-05-10T13:27:11;100753.53;;;21.60;32.86
61682;BME280;47577;43.610;25.010;2023-05-10T13:29:37;100764.56;;;21.57;34.00